createdAt,value
2023-02-20T00:04:40.574Z,1.38
2023-02-20T00:09:30.773Z,1.41
2023-02-20T00:14:19.881Z,1.49
2023-02-20T00:24:06.166Z,1.65
2023-02-20T00:29:10.451Z,1.65
2023-02-20T00:33:59.446Z,1.59
2023-02-20T00:38:48.515Z,1.63
2023-02-20T00:43:40.628Z,1.71
2023-02-20T00:48:24.675Z,1.75
2023-02-20T00:53:11.448Z,1.85
2023-02-20T00:57:55.622Z,1.88
2023-02-20T01:03:22.738Z,1.93
2023-02-20T01:08:27.962Z,1.95
2023-02-20T01:18:52.656Z,2.08
2023-02-20T01:23:44.644Z,2.11
2023-02-20T01:28:27.630Z,2.13
2023-02-20T01:33:10.632Z,2.18
2023-02-20T01:37:53.585Z,2.2
2023-02-20T01:42:36.597Z,2.24
2023-02-20T01:47:19.578Z,2.27
2023-02-20T01:52:02.603Z,2.31
2023-02-20T01:56:45.656Z,2.3
2023-02-20T02:01:28.685Z,2.31
2023-02-20T02:06:11.961Z,2.34
2023-02-20T02:10:55.869Z,2.37
2023-02-20T02:15:38.881Z,2.38
2023-02-20T02:20:21.872Z,2.37
2023-02-20T02:25:04.911Z,2.35
2023-02-20T02:29:48.011Z,2.34
2023-02-20T02:34:31.041Z,2.31
2023-02-20T02:39:14.000Z,2.26
2023-02-20T02:43:56.982Z,2.23
2023-02-20T02:48:40.017Z,2.2
2023-02-20T02:53:22.956Z,2.23
2023-02-20T02:58:05.918Z,2.24
2023-02-20T03:02:48.936Z,2.26
2023-02-20T03:07:32.221Z,2.28
2023-02-20T03:12:15.256Z,2.31
2023-02-20T03:16:58.220Z,2.29
2023-02-20T03:21:41.175Z,2.35
2023-02-20T03:26:24.124Z,2.41
2023-02-20T03:31:07.326Z,2.48
2023-02-20T03:35:50.452Z,2.55
2023-02-20T03:40:35.965Z,2.62
2023-02-20T03:45:18.926Z,2.61
2023-02-20T03:50:02.677Z,2.66
2023-02-20T03:54:45.681Z,2.65
2023-02-20T03:59:28.670Z,2.68
2023-02-20T04:04:11.669Z,2.72
2023-02-20T04:08:54.649Z,2.74
2023-02-20T04:13:37.624Z,2.74
2023-02-20T04:18:20.611Z,2.74
2023-02-20T04:23:03.680Z,2.72
2023-02-20T04:27:46.655Z,2.68
2023-02-20T04:32:29.792Z,2.72
2023-02-20T04:37:12.714Z,2.76
2023-02-20T04:41:55.736Z,2.76
2023-02-20T04:46:38.714Z,2.73
2023-02-20T04:51:21.720Z,2.7
2023-02-20T04:56:04.673Z,2.73
2023-02-20T05:00:47.671Z,2.74
2023-02-20T05:05:30.690Z,2.79
2023-02-20T05:10:13.723Z,2.83
2023-02-20T05:14:56.716Z,2.92
2023-02-20T05:19:39.687Z,2.97
2023-02-20T05:24:22.675Z,3.01
2023-02-20T05:29:05.639Z,3.03
2023-02-20T05:33:48.614Z,3.06
2023-02-20T05:38:31.675Z,3.13
2023-02-20T05:43:14.747Z,3.16
2023-02-20T05:47:57.767Z,3.2
2023-02-20T05:52:40.706Z,3.27
2023-02-20T05:57:23.975Z,3.34
2023-02-20T06:02:07.016Z,3.46
2023-02-20T06:06:50.224Z,3.58
2023-02-20T06:11:35.555Z,3.69
2023-02-20T06:16:18.602Z,3.75
2023-02-20T06:21:01.634Z,3.84
2023-02-20T06:25:44.637Z,3.93
2023-02-20T06:30:28.752Z,3.98
2023-02-20T06:35:12.787Z,4.02
2023-02-20T06:39:55.738Z,4.06
2023-02-20T06:49:43.317Z,4.19
2023-02-20T06:59:54.545Z,4.44
2023-02-20T07:04:37.520Z,4.47
2023-02-20T07:09:20.526Z,4.45
2023-02-20T07:14:03.669Z,4.37
2023-02-20T07:18:46.592Z,4.4
2023-02-20T07:23:29.550Z,4.44
2023-02-20T07:28:12.560Z,4.52
2023-02-20T07:38:10.247Z,4.75
2023-02-20T07:42:53.223Z,4.95
2023-02-20T07:47:36.290Z,5.16
2023-02-20T07:52:19.238Z,5.33
2023-02-20T07:57:02.228Z,5.44
2023-02-20T08:01:45.246Z,5.57
2023-02-20T08:12:15.734Z,5.78
2023-02-20T08:16:59.463Z,5.89
2023-02-20T08:21:42.441Z,5.98
2023-02-20T08:26:25.447Z,6.11
2023-02-20T08:31:08.471Z,6.2
2023-02-20T08:36:07.342Z,6.31
2023-02-20T08:40:50.389Z,6.39
2023-02-20T08:51:15.420Z,6.71
2023-02-20T08:55:58.424Z,7
2023-02-20T09:00:41.511Z,7.2
2023-02-20T09:05:24.750Z,7.18
2023-02-20T09:10:07.939Z,7.16
2023-02-20T09:14:51.029Z,7.23
2023-02-20T09:19:34.107Z,7.39
2023-02-20T09:24:17.177Z,7.48
2023-02-20T09:29:00.191Z,7.42
2023-02-20T09:33:43.166Z,7.57
2023-02-20T09:38:31.824Z,7.71
2023-02-20T09:48:22.377Z,7.92
2023-02-20T09:53:05.384Z,8.07
2023-02-20T09:57:48.467Z,8.01
2023-02-20T10:02:31.633Z,7.99
2023-02-20T10:07:14.980Z,7.91
2023-02-20T10:11:58.025Z,7.98
2023-02-20T10:16:41.156Z,8.03
2023-02-20T10:21:27.639Z,8.16
2023-02-20T10:26:12.042Z,8.49
2023-02-20T10:30:56.530Z,8.75
2023-02-20T10:35:39.834Z,8.76
2023-02-20T10:40:22.860Z,9.02
2023-02-20T10:45:05.894Z,9.79
2023-02-20T10:49:48.945Z,10.33
2023-02-20T10:54:31.976Z,10.26
2023-02-20T10:59:15.007Z,9.76
2023-02-20T11:03:58.154Z,9.57
2023-02-20T11:25:18.111Z,10.6
2023-02-20T11:30:01.137Z,11.05
2023-02-20T11:34:44.318Z,11.25
2023-02-20T11:44:45.713Z,11.52
2023-02-20T11:49:28.713Z,11.38
2023-02-20T11:54:11.986Z,11.33
2023-02-20T11:58:54.935Z,11.37
2023-02-20T12:03:38.540Z,11.36
2023-02-20T12:08:21.626Z,11.42
2023-02-20T12:18:09.222Z,11.44
2023-02-20T12:22:52.319Z,11.35
2023-02-20T12:33:21.215Z,12.27
2023-02-20T12:38:04.210Z,12.84
2023-02-20T12:42:47.216Z,12.98
2023-02-20T12:47:30.347Z,13.16
2023-02-20T12:52:13.499Z,13.32
2023-02-20T12:56:57.602Z,12.63
2023-02-20T13:01:40.935Z,12.29
2023-02-20T13:06:24.620Z,12.23
2023-02-20T13:27:20.429Z,12.38
2023-02-20T13:37:45.283Z,12.92
2023-02-20T13:42:31.566Z,13.33
2023-02-20T13:47:27.293Z,13.4
2023-02-20T13:52:10.749Z,13.24
2023-02-20T13:56:54.961Z,13.13
2023-02-20T14:01:38.053Z,13.01
2023-02-20T14:12:02.176Z,12.78
2023-02-20T14:16:45.476Z,12.72
2023-02-20T14:21:30.198Z,12.56
2023-02-20T14:26:13.684Z,12.31
2023-02-20T14:30:57.540Z,12.17
2023-02-20T14:35:40.546Z,12.06
2023-02-20T14:40:23.614Z,12.02
2023-02-20T14:45:09.184Z,12.01
2023-02-20T15:17:32.153Z,11.71
2023-02-20T15:22:15.368Z,11.7
2023-02-20T15:26:58.530Z,11.67
2023-02-20T15:37:30.483Z,11.64
2023-02-20T15:54:04.521Z,11.89
2023-02-20T15:58:47.811Z,11.91
2023-02-20T16:03:33.822Z,11.86
2023-02-20T16:08:34.769Z,11.82
2023-02-20T16:13:18.802Z,11.83
2023-02-20T16:18:02.111Z,11.79
2023-02-20T16:22:45.276Z,11.73
2023-02-20T16:27:28.573Z,11.63
2023-02-20T16:32:12.540Z,11.62
2023-02-20T16:36:56.356Z,11.55
2023-02-20T16:41:39.566Z,11.49
2023-02-20T16:46:36.429Z,11.4
2023-02-20T16:51:21.708Z,11.44
2023-02-20T16:56:04.866Z,11.37
2023-02-20T17:00:56.927Z,11.31
2023-02-20T17:05:41.026Z,11.24
2023-02-20T17:10:24.078Z,11.15
2023-02-20T17:15:07.192Z,11.06
2023-02-20T17:19:50.148Z,11.02
2023-02-20T17:24:33.176Z,10.98
2023-02-20T17:29:16.351Z,10.89
2023-02-20T17:33:59.530Z,10.8
2023-02-20T17:38:42.712Z,10.76
2023-02-20T17:43:26.094Z,10.68
2023-02-20T17:48:12.644Z,10.59
2023-02-20T17:52:55.876Z,10.55
2023-02-20T17:57:38.999Z,10.43
2023-02-20T18:02:22.162Z,10.35
2023-02-20T18:07:05.406Z,10.19
2023-02-20T18:11:48.535Z,10.03
2023-02-20T18:27:09.844Z,9.91
2023-02-20T18:31:53.351Z,9.96
2023-02-20T18:36:36.979Z,9.97
2023-02-20T18:41:20.497Z,9.97
2023-02-20T18:46:04.157Z,9.97
2023-02-20T18:50:47.573Z,9.98
2023-02-20T18:55:30.829Z,9.98
2023-02-20T19:00:14.906Z,9.96
2023-02-20T19:04:58.169Z,9.97
2023-02-20T19:09:41.524Z,10.01
2023-02-20T19:19:33.932Z,10.03
2023-02-20T19:24:19.822Z,10.04
2023-02-20T19:29:02.975Z,10.05
2023-02-20T19:33:46.442Z,10.03
2023-02-20T19:44:25.278Z,10.03
2023-02-20T19:49:08.633Z,10.03
2023-02-20T19:59:38.157Z,10.03
2023-02-20T20:04:21.194Z,10.08
2023-02-20T20:09:16.753Z,10.07
2023-02-20T20:14:19.093Z,10.05
2023-02-20T20:19:02.336Z,10.07
2023-02-20T20:29:02.088Z,10.13
2023-02-20T20:33:45.000Z,10.14
2023-02-20T20:38:28.363Z,10.12
2023-02-20T20:43:11.352Z,10.17
2023-02-20T20:47:54.343Z,10.23
2023-02-20T20:52:37.381Z,10.23
2023-02-20T20:57:20.335Z,10.23
2023-02-20T21:02:03.362Z,10.2
2023-02-20T21:06:46.323Z,10.25
2023-02-20T21:11:29.521Z,10.23
2023-02-20T21:16:16.348Z,10.28
2023-02-20T21:20:59.408Z,10.22
2023-02-20T21:25:42.365Z,10.14
2023-02-20T21:30:34.648Z,10.09
2023-02-20T21:35:17.813Z,10.06
2023-02-20T21:40:00.856Z,10.04
2023-02-20T21:44:44.096Z,10.02
2023-02-20T21:49:27.170Z,10.04
2023-02-20T21:54:10.132Z,10.05
2023-02-20T21:58:53.340Z,10.04
2023-02-20T22:03:36.423Z,10.02
2023-02-20T22:08:19.449Z,10.01
2023-02-20T22:13:02.502Z,9.97
2023-02-20T22:17:50.923Z,9.95
2023-02-20T22:22:48.924Z,9.93
2023-02-20T22:27:32.143Z,9.92
2023-02-20T22:32:15.479Z,9.9
2023-02-20T22:36:59.104Z,9.91
2023-02-20T22:41:52.272Z,9.88
2023-02-20T22:46:38.297Z,9.86
2023-02-20T22:51:42.783Z,9.83
2023-02-20T22:56:35.513Z,9.83
2023-02-20T23:01:19.534Z,9.81
2023-02-20T23:06:11.707Z,9.79
2023-02-20T23:11:01.721Z,9.79
2023-02-20T23:15:44.745Z,9.77
2023-02-20T23:20:27.688Z,9.77
2023-02-20T23:25:10.665Z,9.74
2023-02-20T23:29:53.717Z,9.76
2023-02-20T23:34:36.824Z,9.78
2023-02-20T23:39:19.859Z,9.78
2023-02-20T23:44:02.821Z,9.78
2023-02-20T23:48:45.795Z,9.73
2023-02-20T23:53:28.761Z,9.72
2023-02-20T23:58:11.842Z,9.68
